sensor_id;sensor_type;location;lat;lon;timestamp;pressure;altitude;pressure_sealevel;temperature;humidity
41830;BME280;38614;43.472;23.936;2023-01-28T00:00:10;99905.47;;;0.21;100.00
41830;BME280;38614;43.472;23.936;2023-01-28T00:02:58;99906.66;;;0.15;100.00
41830;BME280;38614;43.472;23.936;2023-01-28T00:05:46;99916.13;;;0.17;100.00
41830;BME280;38614;43.472;23.936;2023-01-28T00:08:34;99940.84;;;0.35;100.00
41830;BME280;38614;43.472;23.936;2023-01-28T00:11:25;99922.28;;;0.23;100.00
41830;BME280;38614;43.472;23.936;2023-01-28T00:14:12;99946.22;;;0.40;100.00
41830;BME280;38614;43.472;23.936;2023-01-28T00:17:00;99936.66;;;0.42;100.00
41830;BME280;38614;43.472;23.936;2023-01-28T00:19:48;99939.25;;;0.34;100.00
41830;BME280;38614;43.472;23.936;2023-01-28T00:22:36;99943.00;;;0.38;100.00
41830;BME280;38614;43.472;23.936;2023-01-28T00:25:26;99913.03;;;0.24;100.00
41830;BME280;38614;43.472;23.936;2023-01-28T00:28:13;99904.06;;;0.23;100.00
41830;BME280;38614;43.472;23.936;2023-01-28T00:31:09;99938.78;;;0.45;100.00
41830;BME280;38614;43.472;23.936;2023-01-28T00:33:57;99939.69;;;0.41;100.00
41830;BME280;38614;43.472;23.936;2023-01-28T00:36:45;99939.88;;;0.44;100.00
41830;BME280;38614;43.472;23.936;2023-01-28T00:39:43;99904.13;;;0.18;100.00
41830;BME280;38614;43.472;23.936;2023-01-28T00:42:31;99945.63;;;0.43;100.00
41830;BME280;38614;43.472;23.936;2023-01-28T00:45:19;99938.38;;;0.38;100.00
41830;BME280;38614;43.472;23.936;2023-01-28T00:48:07;99946.72;;;0.42;100.00
41830;BME280;38614;43.472;23.936;2023-01-28T00:50:54;99938.13;;;0.35;100.00
41830;BME280;38614;43.472;23.936;2023-01-28T00:53:43;99942.25;;;0.32;100.00
41830;BME280;38614;43.472;23.936;2023-01-28T00:56:31;99935.69;;;0.19;100.00
41830;BME280;38614;43.472;23.936;2023-01-28T00:59:19;99960.38;;;0.37;100.00
41830;BME280;38614;43.472;23.936;2023-01-28T01:02:06;99956.66;;;0.33;100.00
41830;BME280;38614;43.472;23.936;2023-01-28T01:05:05;99958.47;;;0.37;100.00
41830;BME280;38614;43.472;23.936;2023-01-28T01:07:53;99960.91;;;0.39;100.00
41830;BME280;38614;43.472;23.936;2023-01-28T01:10:40;99954.38;;;0.40;100.00
41830;BME280;38614;43.472;23.936;2023-01-28T01:13:29;99934.56;;;0.20;100.00
41830;BME280;38614;43.472;23.936;2023-01-28T01:16:17;99954.94;;;0.37;100.00
41830;BME280;38614;43.472;23.936;2023-01-28T01:19:08;99953.63;;;0.34;100.00
41830;BME280;38614;43.472;23.936;2023-01-28T01:21:55;99937.78;;;0.22;100.00
41830;BME280;38614;43.472;23.936;2023-01-28T01:24:43;99932.97;;;0.19;100.00
41830;BME280;38614;43.472;23.936;2023-01-28T01:27:31;99960.97;;;0.34;100.00
41830;BME280;38614;43.472;23.936;2023-01-28T01:30:19;99955.84;;;0.32;100.00
41830;BME280;38614;43.472;23.936;2023-01-28T01:33:07;99964.81;;;0.33;100.00
41830;BME280;38614;43.472;23.936;2023-01-28T01:35:56;99946.25;;;0.21;100.00
41830;BME280;38614;43.472;23.936;2023-01-28T01:38:45;99957.25;;;0.30;100.00
41830;BME280;38614;43.472;23.936;2023-01-28T01:41:33;99941.19;;;0.14;100.00
41830;BME280;38614;43.472;23.936;2023-01-28T01:50:41;99981.56;;;0.40;100.00
41830;BME280;38614;43.472;23.936;2023-01-28T01:53:32;99976.69;;;0.37;100.00
41830;BME280;38614;43.472;23.936;2023-01-28T01:56:23;99976.19;;;0.35;100.00
41830;BME280;38614;43.472;23.936;2023-01-28T01:59:18;99971.66;;;0.30;100.00
41830;BME280;38614;43.472;23.936;2023-01-28T02:02:08;99989.72;;;0.40;100.00
41830;BME280;38614;43.472;23.936;2023-01-28T02:04:56;99980.63;;;0.31;100.00
41830;BME280;38614;43.472;23.936;2023-01-28T02:07:46;99983.19;;;0.41;100.00
41830;BME280;38614;43.472;23.936;2023-01-28T02:10:36;99960.53;;;0.26;100.00
41830;BME280;38614;43.472;23.936;2023-01-28T02:13:30;99981.88;;;0.38;100.00
41830;BME280;38614;43.472;23.936;2023-01-28T02:16:19;99994.56;;;0.43;100.00
41830;BME280;38614;43.472;23.936;2023-01-28T02:19:11;99991.53;;;0.44;100.00
41830;BME280;38614;43.472;23.936;2023-01-28T02:22:14;99994.56;;;0.43;100.00
41830;BME280;38614;43.472;23.936;2023-01-28T02:28:08;99985.38;;;0.39;100.00
41830;BME280;38614;43.472;23.936;2023-01-28T02:37:20;99993.16;;;0.45;100.00
41830;BME280;38614;43.472;23.936;2023-01-28T02:40:13;99986.69;;;0.41;100.00
41830;BME280;38614;43.472;23.936;2023-01-28T02:43:04;99994.25;;;0.44;100.00
41830;BME280;38614;43.472;23.936;2023-01-28T02:45:52;99981.63;;;0.35;100.00
41830;BME280;38614;43.472;23.936;2023-01-28T02:49:00;99986.34;;;0.48;100.00
41830;BME280;38614;43.472;23.936;2023-01-28T02:54:54;99965.75;;;0.42;100.00
41830;BME280;38614;43.472;23.936;2023-01-28T03:00:43;99993.81;;;0.56;100.00
41830;BME280;38614;43.472;23.936;2023-01-28T03:03:57;99988.75;;;0.49;100.00
41830;BME280;38614;43.472;23.936;2023-01-28T03:06:49;99984.72;;;0.47;100.00
41830;BME280;38614;43.472;23.936;2023-01-28T03:09:42;99976.03;;;0.45;100.00
41830;BME280;38614;43.472;23.936;2023-01-28T03:12:32;99993.16;;;0.45;100.00
41830;BME280;38614;43.472;23.936;2023-01-28T03:18:50;100006.16;;;0.48;100.00
41830;BME280;38614;43.472;23.936;2023-01-28T03:21:57;100011.38;;;0.45;100.00
41830;BME280;38614;43.472;23.936;2023-01-28T03:25:07;99977.66;;;0.27;100.00
41830;BME280;38614;43.472;23.936;2023-01-28T03:28:17;99981.78;;;0.43;100.00
41830;BME280;38614;43.472;23.936;2023-01-28T03:31:25;100005.28;;;0.53;100.00
41830;BME280;38614;43.472;23.936;2023-01-28T03:34:32;100015.13;;;0.49;100.00
41830;BME280;38614;43.472;23.936;2023-01-28T03:37:39;100015.03;;;0.54;100.00
41830;BME280;38614;43.472;23.936;2023-01-28T03:43:37;100010.19;;;0.51;100.00
41830;BME280;38614;43.472;23.936;2023-01-28T03:46:25;100004.31;;;0.44;100.00
41830;BME280;38614;43.472;23.936;2023-01-28T03:49:12;99998.44;;;0.37;100.00
41830;BME280;38614;43.472;23.936;2023-01-28T03:52:00;100000.66;;;0.35;100.00
41830;BME280;38614;43.472;23.936;2023-01-28T03:54:49;100019.22;;;0.46;100.00
41830;BME280;38614;43.472;23.936;2023-01-28T03:57:39;99995.16;;;0.40;100.00
41830;BME280;38614;43.472;23.936;2023-01-28T04:00:36;100018.72;;;0.44;100.00
41830;BME280;38614;43.472;23.936;2023-01-28T04:03:30;100015.69;;;0.46;100.00
41830;BME280;38614;43.472;23.936;2023-01-28T04:06:22;100013.28;;;0.44;100.00
41830;BME280;38614;43.472;23.936;2023-01-28T04:09:26;100023.78;;;0.51;100.00
41830;BME280;38614;43.472;23.936;2023-01-28T04:12:19;100017.84;;;0.49;100.00
41830;BME280;38614;43.472;23.936;2023-01-28T04:15:10;100028.47;;;0.64;100.00
41830;BME280;38614;43.472;23.936;2023-01-28T04:18:05;100023.50;;;0.52;100.00
41830;BME280;38614;43.472;23.936;2023-01-28T04:20:54;100033.66;;;0.47;100.00
41830;BME280;38614;43.472;23.936;2023-01-28T04:23:41;100030.34;;;0.50;100.00
41830;BME280;38614;43.472;23.936;2023-01-28T04:26:32;100032.00;;;0.46;100.00
41830;BME280;38614;43.472;23.936;2023-01-28T04:29:20;100031.59;;;0.39;100.00
41830;BME280;38614;43.472;23.936;2023-01-28T04:32:10;100046.81;;;0.40;100.00
41830;BME280;38614;43.472;23.936;2023-01-28T04:35:20;100034.97;;;0.31;100.00
41830;BME280;38614;43.472;23.936;2023-01-28T04:38:26;100044.94;;;0.35;100.00
41830;BME280;38614;43.472;23.936;2023-01-28T04:41:32;100058.84;;;0.34;100.00
41830;BME280;38614;43.472;23.936;2023-01-28T04:44:26;100054.50;;;0.33;100.00
41830;BME280;38614;43.472;23.936;2023-01-28T04:47:28;100042.69;;;0.23;100.00
41830;BME280;38614;43.472;23.936;2023-01-28T04:50:45;100061.75;;;0.37;100.00
41830;BME280;38614;43.472;23.936;2023-01-28T04:53:53;100075.00;;;0.44;100.00
41830;BME280;38614;43.472;23.936;2023-01-28T04:56:46;100063.16;;;0.35;100.00
41830;BME280;38614;43.472;23.936;2023-01-28T04:59:33;100076.09;;;0.43;100.00
41830;BME280;38614;43.472;23.936;2023-01-28T05:02:23;100034.88;;;0.17;100.00
41830;BME280;38614;43.472;23.936;2023-01-28T05:05:11;100031.84;;;0.18;100.00
41830;BME280;38614;43.472;23.936;2023-01-28T05:08:22;100061.41;;;0.44;100.00
41830;BME280;38614;43.472;23.936;2023-01-28T05:11:11;100062.59;;;0.38;100.00
41830;BME280;38614;43.472;23.936;2023-01-28T05:14:00;100088.84;;;0.47;100.00
41830;BME280;38614;43.472;23.936;2023-01-28T05:16:54;100059.66;;;0.34;100.00
41830;BME280;38614;43.472;23.936;2023-01-28T05:19:42;100073.59;;;0.27;100.00
41830;BME280;38614;43.472;23.936;2023-01-28T05:22:38;100086.22;;;0.37;100.00
41830;BME280;38614;43.472;23.936;2023-01-28T05:25:39;100084.63;;;0.36;100.00
41830;BME280;38614;43.472;23.936;2023-01-28T05:28:27;100104.59;;;0.45;100.00
41830;BME280;38614;43.472;23.936;2023-01-28T05:31:17;100097.34;;;0.41;100.00
41830;BME280;38614;43.472;23.936;2023-01-28T05:34:05;100093.72;;;0.26;100.00
41830;BME280;38614;43.472;23.936;2023-01-28T05:36:52;100109.69;;;0.52;100.00
41830;BME280;38614;43.472;23.936;2023-01-28T05:39:48;100111.91;;;0.50;100.00
41830;BME280;38614;43.472;23.936;2023-01-28T05:42:36;100119.72;;;0.56;100.00
41830;BME280;38614;43.472;23.936;2023-01-28T05:45:41;100120.28;;;0.53;100.00
41830;BME280;38614;43.472;23.936;2023-01-28T05:48:36;100132.50;;;0.56;100.00
41830;BME280;38614;43.472;23.936;2023-01-28T05:51:47;100126.53;;;0.54;100.00
41830;BME280;38614;43.472;23.936;2023-01-28T05:54:39;100129.53;;;0.52;100.00
41830;BME280;38614;43.472;23.936;2023-01-28T05:57:26;100129.84;;;0.51;100.00
41830;BME280;38614;43.472;23.936;2023-01-28T06:00:15;100141.16;;;0.58;100.00
41830;BME280;38614;43.472;23.936;2023-01-28T06:03:04;100145.50;;;0.59;100.00
41830;BME280;38614;43.472;23.936;2023-01-28T06:05:54;100146.09;;;0.56;100.00
41830;BME280;38614;43.472;23.936;2023-01-28T06:08:42;100147.16;;;0.55;100.00
41830;BME280;38614;43.472;23.936;2023-01-28T06:11:30;100161.22;;;0.62;100.00
41830;BME280;38614;43.472;23.936;2023-01-28T06:14:22;100153.56;;;0.64;100.00
41830;BME280;38614;43.472;23.936;2023-01-28T06:17:24;100169.97;;;0.59;100.00
41830;BME280;38614;43.472;23.936;2023-01-28T06:20:25;100171.53;;;0.65;100.00
41830;BME280;38614;43.472;23.936;2023-01-28T06:23:15;100166.91;;;0.66;100.00
41830;BME280;38614;43.472;23.936;2023-01-28T06:26:06;100152.84;;;0.59;100.00
41830;BME280;38614;43.472;23.936;2023-01-28T06:28:56;100136.38;;;0.50;100.00
41830;BME280;38614;43.472;23.936;2023-01-28T06:31:45;100141.47;;;0.56;100.00
41830;BME280;38614;43.472;23.936;2023-01-28T06:34:32;100164.31;;;0.74;100.00
41830;BME280;38614;43.472;23.936;2023-01-28T06:37:23;100158.16;;;0.69;100.00
41830;BME280;38614;43.472;23.936;2023-01-28T06:40:14;100162.53;;;0.83;100.00
41830;BME280;38614;43.472;23.936;2023-01-28T06:43:05;100182.34;;;0.89;100.00
41830;BME280;38614;43.472;23.936;2023-01-28T06:45:54;100169.41;;;0.81;100.00
41830;BME280;38614;43.472;23.936;2023-01-28T06:48:41;100151.59;;;0.70;100.00
41830;BME280;38614;43.472;23.936;2023-01-28T06:51:29;100185.34;;;0.88;100.00
41830;BME280;38614;43.472;23.936;2023-01-28T06:54:17;100159.31;;;0.81;100.00
41830;BME280;38614;43.472;23.936;2023-01-28T06:57:08;100186.53;;;1.00;100.00
41830;BME280;38614;43.472;23.936;2023-01-28T07:00:02;100184.31;;;1.02;100.00
41830;BME280;38614;43.472;23.936;2023-01-28T07:02:54;100158.88;;;0.74;100.00
41830;BME280;38614;43.472;23.936;2023-01-28T07:05:45;100191.59;;;1.07;100.00
41830;BME280;38614;43.472;23.936;2023-01-28T07:08:33;100185.97;;;1.03;100.00
41830;BME280;38614;43.472;23.936;2023-01-28T07:11:20;100191.75;;;1.16;100.00
41830;BME280;38614;43.472;23.936;2023-01-28T07:14:09;100173.72;;;1.01;100.00
41830;BME280;38614;43.472;23.936;2023-01-28T07:16:56;100189.84;;;1.16;100.00
41830;BME280;38614;43.472;23.936;2023-01-28T07:19:50;100176.84;;;1.13;100.00
41830;BME280;38614;43.472;23.936;2023-01-28T07:22:46;100203.22;;;1.31;100.00
41830;BME280;38614;43.472;23.936;2023-01-28T07:25:34;100199.47;;;1.27;100.00
41830;BME280;38614;43.472;23.936;2023-01-28T07:28:22;100199.16;;;1.29;100.00
41830;BME280;38614;43.472;23.936;2023-01-28T07:31:10;100215.28;;;1.44;100.00
41830;BME280;38614;43.472;23.936;2023-01-28T07:33:58;100214.44;;;1.62;100.00
41830;BME280;38614;43.472;23.936;2023-01-28T07:36:48;100210.69;;;1.58;100.00
41830;BME280;38614;43.472;23.936;2023-01-28T07:39:38;100187.38;;;1.52;100.00
41830;BME280;38614;43.472;23.936;2023-01-28T07:42:26;100193.47;;;1.77;100.00
41830;BME280;38614;43.472;23.936;2023-01-28T07:45:14;100207.31;;;1.80;100.00
41830;BME280;38614;43.472;23.936;2023-01-28T07:48:04;100195.25;;;1.67;100.00
41830;BME280;38614;43.472;23.936;2023-01-28T07:50:52;100215.75;;;1.97;100.00
41830;BME280;38614;43.472;23.936;2023-01-28T07:53:41;100207.75;;;1.87;100.00
41830;BME280;38614;43.472;23.936;2023-01-28T07:56:31;100221.69;;;1.99;100.00
41830;BME280;38614;43.472;23.936;2023-01-28T07:59:19;100212.81;;;2.08;100.00
41830;BME280;38614;43.472;23.936;2023-01-28T08:02:10;100222.63;;;2.09;100.00
41830;BME280;38614;43.472;23.936;2023-01-28T08:04:58;100223.09;;;1.97;100.00
41830;BME280;38614;43.472;23.936;2023-01-28T08:07:49;100231.22;;;2.16;100.00
41830;BME280;38614;43.472;23.936;2023-01-28T08:10:38;100220.69;;;1.95;100.00
41830;BME280;38614;43.472;23.936;2023-01-28T08:13:26;100217.91;;;1.82;100.00
41830;BME280;38614;43.472;23.936;2023-01-28T08:16:15;100233.81;;;2.07;100.00
41830;BME280;38614;43.472;23.936;2023-01-28T08:19:02;100215.38;;;1.85;100.00
41830;BME280;38614;43.472;23.936;2023-01-28T08:21:53;100244.81;;;2.02;100.00
41830;BME280;38614;43.472;23.936;2023-01-28T08:24:40;100244.38;;;1.95;100.00
41830;BME280;38614;43.472;23.936;2023-01-28T08:27:28;100246.22;;;1.99;100.00
41830;BME280;38614;43.472;23.936;2023-01-28T08:30:16;100244.28;;;1.86;100.00
41830;BME280;38614;43.472;23.936;2023-01-28T08:33:05;100239.47;;;1.97;100.00
41830;BME280;38614;43.472;23.936;2023-01-28T08:35:53;100249.56;;;2.10;100.00
41830;BME280;38614;43.472;23.936;2023-01-28T08:38:44;100265.53;;;2.17;100.00
41830;BME280;38614;43.472;23.936;2023-01-28T08:41:32;100262.53;;;2.32;100.00
41830;BME280;38614;43.472;23.936;2023-01-28T08:44:20;100248.19;;;2.26;100.00
41830;BME280;38614;43.472;23.936;2023-01-28T08:47:07;100223.97;;;2.25;100.00
41830;BME280;38614;43.472;23.936;2023-01-28T08:49:55;100260.00;;;2.49;100.00
41830;BME280;38614;43.472;23.936;2023-01-28T08:52:44;100247.69;;;2.38;100.00
41830;BME280;38614;43.472;23.936;2023-01-28T08:55:33;100261.53;;;2.55;100.00
41830;BME280;38614;43.472;23.936;2023-01-28T08:58:23;100251.53;;;2.37;100.00
41830;BME280;38614;43.472;23.936;2023-01-28T09:01:11;100266.38;;;2.58;100.00
41830;BME280;38614;43.472;23.936;2023-01-28T09:03:59;100221.72;;;2.27;100.00
41830;BME280;38614;43.472;23.936;2023-01-28T09:06:46;100249.91;;;2.50;100.00
41830;BME280;38614;43.472;23.936;2023-01-28T09:09:34;100254.25;;;2.51;100.00
41830;BME280;38614;43.472;23.936;2023-01-28T09:12:22;100250.25;;;2.62;100.00
41830;BME280;38614;43.472;23.936;2023-01-28T09:15:10;100227.69;;;2.56;100.00
41830;BME280;38614;43.472;23.936;2023-01-28T09:17:58;100253.03;;;2.84;100.00
41830;BME280;38614;43.472;23.936;2023-01-28T09:20:48;100225.16;;;2.74;100.00
41830;BME280;38614;43.472;23.936;2023-01-28T09:23:37;100237.69;;;2.75;100.00
41830;BME280;38614;43.472;23.936;2023-01-28T09:26:27;100240.28;;;2.94;100.00
41830;BME280;38614;43.472;23.936;2023-01-28T09:29:18;100243.34;;;2.92;100.00
41830;BME280;38614;43.472;23.936;2023-01-28T09:32:07;100241.69;;;3.05;100.00
41830;BME280;38614;43.472;23.936;2023-01-28T09:34:55;100223.81;;;2.99;100.00
41830;BME280;38614;43.472;23.936;2023-01-28T09:37:43;100244.78;;;3.26;100.00
41830;BME280;38614;43.472;23.936;2023-01-28T09:40:38;100245.06;;;3.38;100.00
41830;BME280;38614;43.472;23.936;2023-01-28T09:43:53;100209.72;;;3.05;100.00
41830;BME280;38614;43.472;23.936;2023-01-28T09:46:45;100245.38;;;3.23;100.00
41830;BME280;38614;43.472;23.936;2023-01-28T09:49:46;100223.53;;;2.73;100.00
41830;BME280;38614;43.472;23.936;2023-01-28T09:52:36;100247.78;;;2.74;100.00
41830;BME280;38614;43.472;23.936;2023-01-28T09:55:33;100234.88;;;2.80;100.00
41830;BME280;38614;43.472;23.936;2023-01-28T09:58:23;100240.41;;;2.89;100.00
41830;BME280;38614;43.472;23.936;2023-01-28T10:07:28;100235.16;;;3.28;100.00
41830;BME280;38614;43.472;23.936;2023-01-28T10:10:42;100226.00;;;3.47;100.00
41830;BME280;38614;43.472;23.936;2023-01-28T10:16:48;100230.16;;;3.66;100.00
41830;BME280;38614;43.472;23.936;2023-01-28T10:19:51;100231.44;;;3.69;100.00
41830;BME280;38614;43.472;23.936;2023-01-28T10:22:45;100218.00;;;3.72;100.00
41830;BME280;38614;43.472;23.936;2023-01-28T10:25:36;100215.53;;;3.71;100.00
41830;BME280;38614;43.472;23.936;2023-01-28T10:28:27;100223.47;;;3.72;100.00
41830;BME280;38614;43.472;23.936;2023-01-28T10:31:16;100214.63;;;3.53;100.00
41830;BME280;38614;43.472;23.936;2023-01-28T10:34:08;100196.31;;;3.31;100.00
41830;BME280;38614;43.472;23.936;2023-01-28T10:36:57;100225.44;;;3.58;100.00
41830;BME280;38614;43.472;23.936;2023-01-28T10:39:45;100188.88;;;3.46;100.00
41830;BME280;38614;43.472;23.936;2023-01-28T10:42:38;100230.53;;;3.74;100.00
41830;BME280;38614;43.472;23.936;2023-01-28T10:45:29;100220.22;;;3.70;100.00
41830;BME280;38614;43.472;23.936;2023-01-28T10:48:24;100226.78;;;3.69;100.00
41830;BME280;38614;43.472;23.936;2023-01-28T10:51:12;100224.13;;;3.56;100.00
41830;BME280;38614;43.472;23.936;2023-01-28T10:54:01;100160.06;;;2.81;100.00
41830;BME280;38614;43.472;23.936;2023-01-28T10:56:53;100241.94;;;3.31;100.00
41830;BME280;38614;43.472;23.936;2023-01-28T10:59:41;100224.19;;;3.42;100.00
41830;BME280;38614;43.472;23.936;2023-01-28T11:02:33;100196.22;;;3.23;100.00
41830;BME280;38614;43.472;23.936;2023-01-28T11:05:26;100197.09;;;3.32;100.00
41830;BME280;38614;43.472;23.936;2023-01-28T11:08:16;100217.97;;;3.50;100.00
41830;BME280;38614;43.472;23.936;2023-01-28T11:11:13;100228.66;;;3.38;100.00
41830;BME280;38614;43.472;23.936;2023-01-28T11:14:01;100217.81;;;3.10;100.00
41830;BME280;38614;43.472;23.936;2023-01-28T11:16:50;100228.81;;;3.19;100.00
41830;BME280;38614;43.472;23.936;2023-01-28T11:19:40;100237.75;;;3.33;100.00
41830;BME280;38614;43.472;23.936;2023-01-28T11:22:34;100241.75;;;3.50;100.00
41830;BME280;38614;43.472;23.936;2023-01-28T11:28:17;100226.91;;;3.20;100.00
41830;BME280;38614;43.472;23.936;2023-01-28T11:31:09;100232.53;;;3.23;100.00
41830;BME280;38614;43.472;23.936;2023-01-28T11:34:00;100228.31;;;3.17;100.00
41830;BME280;38614;43.472;23.936;2023-01-28T11:37:12;100223.50;;;3.36;100.00
41830;BME280;38614;43.472;23.936;2023-01-28T11:40:15;100221.75;;;3.40;100.00
41830;BME280;38614;43.472;23.936;2023-01-28T11:43:08;100212.84;;;3.12;100.00
41830;BME280;38614;43.472;23.936;2023-01-28T12:10:45;100199.19;;;2.76;100.00
41830;BME280;38614;43.472;23.936;2023-01-28T12:14:03;100230.25;;;3.03;100.00
41830;BME280;38614;43.472;23.936;2023-01-28T12:26:15;100234.88;;;2.80;100.00
41830;BME280;38614;43.472;23.936;2023-01-28T12:29:52;100227.50;;;2.80;100.00
41830;BME280;38614;43.472;23.936;2023-01-28T12:35:59;100230.59;;;2.60;100.00
41830;BME280;38614;43.472;23.936;2023-01-28T12:39:46;100244.66;;;2.67;100.00
41830;BME280;38614;43.472;23.936;2023-01-28T12:42:51;100238.81;;;2.74;100.00
41830;BME280;38614;43.472;23.936;2023-01-28T12:45:56;100248.00;;;2.64;100.00
41830;BME280;38614;43.472;23.936;2023-01-28T12:52:24;100252.56;;;2.55;100.00
41830;BME280;38614;43.472;23.936;2023-01-28T12:55:39;100262.06;;;1.97;100.00
41830;BME280;38614;43.472;23.936;2023-01-28T13:01:42;100206.34;;;1.90;100.00
41830;BME280;38614;43.472;23.936;2023-01-28T13:04:46;100259.09;;;2.26;100.00
41830;BME280;38614;43.472;23.936;2023-01-28T13:07:51;100263.13;;;2.15;100.00
41830;BME280;38614;43.472;23.936;2023-01-28T13:10:43;100265.97;;;2.24;100.00
41830;BME280;38614;43.472;23.936;2023-01-28T13:13:41;100254.09;;;2.01;100.00
41830;BME280;38614;43.472;23.936;2023-01-28T13:16:32;100263.03;;;2.20;100.00
41830;BME280;38614;43.472;23.936;2023-01-28T13:19:35;100270.13;;;2.35;100.00
41830;BME280;38614;43.472;23.936;2023-01-28T13:25:25;100280.19;;;2.21;100.00
41830;BME280;38614;43.472;23.936;2023-01-28T13:28:31;100283.25;;;2.33;100.00
41830;BME280;38614;43.472;23.936;2023-01-28T13:31:22;100276.56;;;2.25;100.00
41830;BME280;38614;43.472;23.936;2023-01-28T13:34:38;100287.66;;;2.15;100.00
41830;BME280;38614;43.472;23.936;2023-01-28T13:37:46;100278.88;;;2.32;100.00
41830;BME280;38614;43.472;23.936;2023-01-28T13:40:35;100272.13;;;2.29;100.00
41830;BME280;38614;43.472;23.936;2023-01-28T13:46:31;100271.69;;;2.22;100.00
41830;BME280;38614;43.472;23.936;2023-01-28T13:49:32;100279.50;;;2.29;100.00
41830;BME280;38614;43.472;23.936;2023-01-28T13:55:22;100284.44;;;2.27;100.00
41830;BME280;38614;43.472;23.936;2023-01-28T14:11:02;100299.25;;;2.07;100.00
41830;BME280;38614;43.472;23.936;2023-01-28T14:20:12;100295.97;;;1.91;100.00
41830;BME280;38614;43.472;23.936;2023-01-28T14:23:05;100292.56;;;1.99;100.00
41830;BME280;38614;43.472;23.936;2023-01-28T14:26:22;100277.69;;;1.92;100.00
41830;BME280;38614;43.472;23.936;2023-01-28T14:29:17;100312.38;;;2.05;100.00
41830;BME280;38614;43.472;23.936;2023-01-28T14:32:16;100298.63;;;1.96;100.00
41830;BME280;38614;43.472;23.936;2023-01-28T14:35:08;100315.16;;;2.00;100.00
41830;BME280;38614;43.472;23.936;2023-01-28T14:38:06;100273.53;;;1.81;100.00
41830;BME280;38614;43.472;23.936;2023-01-28T14:40:54;100313.34;;;1.95;100.00
41830;BME280;38614;43.472;23.936;2023-01-28T14:43:43;100300.97;;;1.84;100.00
41830;BME280;38614;43.472;23.936;2023-01-28T14:46:42;100321.66;;;1.85;100.00
41830;BME280;38614;43.472;23.936;2023-01-28T14:49:54;100316.06;;;1.77;100.00
41830;BME280;38614;43.472;23.936;2023-01-28T14:55:56;100310.78;;;1.66;100.00
41830;BME280;38614;43.472;23.936;2023-01-28T14:59:15;100339.50;;;1.78;100.00
41830;BME280;38614;43.472;23.936;2023-01-28T15:02:25;100336.50;;;1.79;100.00
41830;BME280;38614;43.472;23.936;2023-01-28T15:05:28;100338.47;;;1.74;100.00
41830;BME280;38614;43.472;23.936;2023-01-28T15:08:20;100346.19;;;1.85;100.00
41830;BME280;38614;43.472;23.936;2023-01-28T15:11:13;100343.13;;;1.73;100.00
41830;BME280;38614;43.472;23.936;2023-01-28T15:14:15;100349.00;;;1.61;100.00
41830;BME280;38614;43.472;23.936;2023-01-28T15:17:23;100342.81;;;1.56;100.00
41830;BME280;38614;43.472;23.936;2023-01-28T15:20:17;100324.13;;;1.49;100.00
41830;BME280;38614;43.472;23.936;2023-01-28T15:23:06;100343.78;;;1.65;100.00
41830;BME280;38614;43.472;23.936;2023-01-28T15:25:54;100348.78;;;1.58;100.00
41830;BME280;38614;43.472;23.936;2023-01-28T15:28:45;100343.31;;;1.58;100.00
41830;BME280;38614;43.472;23.936;2023-01-28T15:31:34;100349.97;;;1.52;100.00
41830;BME280;38614;43.472;23.936;2023-01-28T15:34:26;100325.66;;;1.36;100.00
41830;BME280;38614;43.472;23.936;2023-01-28T15:37:26;100351.63;;;1.48;100.00
41830;BME280;38614;43.472;23.936;2023-01-28T15:40:18;100295.25;;;1.10;100.00
41830;BME280;38614;43.472;23.936;2023-01-28T15:43:19;100359.09;;;1.42;100.00
41830;BME280;38614;43.472;23.936;2023-01-28T15:46:16;100356.38;;;1.42;100.00
41830;BME280;38614;43.472;23.936;2023-01-28T15:49:19;100361.56;;;1.38;100.00
41830;BME280;38614;43.472;23.936;2023-01-28T15:52:10;100364.44;;;1.47;100.00
41830;BME280;38614;43.472;23.936;2023-01-28T15:54:58;100366.66;;;1.45;100.00
41830;BME280;38614;43.472;23.936;2023-01-28T15:57:46;100373.50;;;1.42;100.00
41830;BME280;38614;43.472;23.936;2023-01-28T16:01:13;100375.19;;;1.38;100.00
41830;BME280;38614;43.472;23.936;2023-01-28T16:04:04;100381.44;;;1.39;100.00
41830;BME280;38614;43.472;23.936;2023-01-28T16:06:54;100371.91;;;1.41;100.00
41830;BME280;38614;43.472;23.936;2023-01-28T16:09:43;100386.66;;;1.35;100.00
41830;BME280;38614;43.472;23.936;2023-01-28T16:12:30;100389.38;;;1.35;100.00
41830;BME280;38614;43.472;23.936;2023-01-28T16:15:19;100387.91;;;1.24;100.00
41830;BME280;38614;43.472;23.936;2023-01-28T16:19:05;100398.50;;;1.26;100.00
41830;BME280;38614;43.472;23.936;2023-01-28T16:21:33;100390.13;;;1.22;100.00
41830;BME280;38614;43.472;23.936;2023-01-28T16:24:29;100396.78;;;1.30;100.00
41830;BME280;38614;43.472;23.936;2023-01-28T16:27:23;100394.66;;;1.27;100.00
41830;BME280;38614;43.472;23.936;2023-01-28T16:30:11;100394.19;;;1.20;100.00
41830;BME280;38614;43.472;23.936;2023-01-28T16:33:00;100388.75;;;1.20;100.00
41830;BME280;38614;43.472;23.936;2023-01-28T16:35:47;100406.97;;;1.24;100.00
41830;BME280;38614;43.472;23.936;2023-01-28T16:38:53;100400.91;;;1.27;100.00
41830;BME280;38614;43.472;23.936;2023-01-28T16:41:43;100409.72;;;1.19;100.00
41830;BME280;38614;43.472;23.936;2023-01-28T16:44:32;100407.47;;;1.26;100.00
41830;BME280;38614;43.472;23.936;2023-01-28T16:47:23;100411.88;;;1.22;100.00
41830;BME280;38614;43.472;23.936;2023-01-28T16:50:14;100430.41;;;1.20;100.00
41830;BME280;38614;43.472;23.936;2023-01-28T16:53:02;100430.41;;;1.20;100.00